Mammoth Cave National Park, KY

12:04 AM CDT op 28 september 2016 (GMT -0500)
Bowling Green | | Change Station

Hoogte 0 ft 36.99 °N, 86.47 °W | Updated 51 seconds ago

Clear
Helder
60.3 °F
Voelt als 60.3 °F
N
0.6
Wind Variabel Wind van west
Gusts 1.2 mijl/u

Vandaag
Hoog -- | Laag -- °F
--% Kans op neerslag
Gisteren
Hoog -- | Laag -- °F
Precip. -- inches
Druk 29.93 inches
Zicht 10.0 mijlen
Wolken Helder
Dauwpunt 51 °F
Vochtigheid 71%
Neerslag inches
Dikte sneeuw Niet beschikbaar.
6:39 AM 6:32 PM
Afnemende halvemaan, 7% visible
METAR KBWG 280453Z AUTO 00000KT 10SM CLR 16/09 A2993 RMK AO2 SLP133 T01560089
Druk 29.93 inches
Zicht 10.0 mijlen
Wolken Helder
Dauwpunt 51 °F
Vochtigheid 71%
Neerslag inches
Dikte sneeuw Niet beschikbaar.
6:39 AM 6:32 PM
Afnemende halvemaan, 7% visible
METAR KBWG 280453Z AUTO 00000KT 10SM CLR 16/09 A2993 RMK AO2 SLP133 T01560089

10-Day Weather Forecast

Almanac

Astronomie

Sep. 28, 2016 Opkomst Ondergang
Werkelijke tijd
Burgerlijke schemering
Nautische schemering
Astronomische schemering
Maan
Golflengte van het zichtbare licht
Daglengte
Tomorrow will be .
, % of the Moon is Illuminated

Extremen vandaag

State Highs State Lows

Community

WunderPhotos

Upload Photos

1,942,213 foto’s ge-upload!

WunderBlog® & News

Nearby

Luchtkwaliteit

  Luchtkwaliteit LK-index Verontreinigende stof
Not available.

Dikte sneeuw

Station Depth Geometrische hoogte

Aardbevingen

Stad Distance Mag. Time & Date
Minimum magnitude displayed is 2.5.

Watertemperatuur langs de kust

Plaats Temperatuur

Stations

Nabije weerstations

Locatie station Temp. Gevoelstemperatuur Dauwpunt Vochtigheid Wind Precip. Hoogte Geactualiseerd Type
                   

Watches & Warnings

There are currently no watches in effect.